Time;durP1;ratioP1;P1;durP2;ratioP2;P2;SDS_P1;SDS_P2;PMS_P1;PMS_P2;Temp;Humidity;BMP_temperature;BMP_pressure;BME280_temperature;BME280_humidity;BME280_pressure;Samples;Min_cycle;Max_cycle;Signal;HPM_P1;HPM_P2
2022/07/18 00:01:28;;;;;;;;;4.25;4.25;;;;;27.95;21.39;101691.66;5061413;28;45539;-60
2022/07/18 00:03:53;;;;;;;;;4.00;4.00;;;;;27.93;20.98;101690.94;5043289;28;45328;-60
2022/07/18 00:06:19;;;;;;;;;4.00;3.25;;;;;27.90;21.41;101698.25;5060581;28;46130;-60
2022/07/18 00:08:44;;;;;;;;;3.00;3.00;;;;;27.88;21.50;101696.66;5043507;28;45309;-60
2022/07/18 00:11:09;;;;;;;;;6.00;6.00;;;;;27.85;21.11;101695.03;5061306;28;45371;-60
2022/07/18 00:13:35;;;;;;;;;4.75;4.75;;;;;27.82;21.16;101692.53;5061471;28;45567;-60
2022/07/18 00:16:00;;;;;;;;;19.50;18.50;;;;;27.79;21.33;101695.47;5061084;28;45983;-60
2022/07/18 00:18:25;;;;;;;;;5.75;5.00;;;;;27.76;21.22;101687.63;5061257;28;45265;-60
2022/07/18 00:20:51;;;;;;;;;3.25;3.25;;;;;27.71;21.76;101678.97;5061028;28;45242;-60
2022/07/18 00:23:16;;;;;;;;;5.25;5.25;;;;;27.70;21.54;101675.41;5043368;28;45507;-60
2022/07/18 00:25:42;;;;;;;;;3.75;3.75;;;;;27.67;21.22;101675.66;5060926;28;46579;-60
2022/07/18 00:28:07;;;;;;;;;4.00;4.00;;;;;27.63;22.12;101670.56;5061443;28;45163;-60
2022/07/18 00:30:32;;;;;;;;;5.50;5.00;;;;;27.62;22.02;101669.69;5061169;28;45388;-61
2022/07/18 00:32:58;;;;;;;;;7.00;4.75;;;;;27.60;21.28;101684.28;5060063;28;45510;-60
2022/07/18 00:35:23;;;;;;;;;7.50;6.75;;;;;27.57;21.70;101683.53;5060754;28;45601;-60
2022/07/18 00:37:49;;;;;;;;;6.25;5.25;;;;;27.52;21.46;101674.03;5061160;28;45245;-60
2022/07/18 00:40:14;;;;;;;;;4.25;4.25;;;;;27.51;21.84;101675.88;5061217;28;45474;-60
2022/07/18 00:42:39;;;;;;;;;5.75;4.00;;;;;27.46;21.60;101674.47;5061036;28;45159;-60
2022/07/18 00:45:05;;;;;;;;;3.25;3.00;;;;;27.43;21.80;101672.84;5061010;28;45709;-60
2022/07/18 00:47:31;;;;;;;;;4.25;4.25;;;;;27.41;21.70;101680.22;5060979;28;45358;-60
2022/07/18 00:49:58;;;;;;;;;6.75;5.00;;;;;27.38;22.03;101683.09;5060716;28;45315;-60
2022/07/18 00:52:23;;;;;;;;;5.00;4.00;;;;;27.36;22.18;101687.75;5061032;28;45483;-60
2022/07/18 00:54:48;;;;;;;;;4.00;4.00;;;;;27.32;22.37;101681.69;5060713;28;45317;-60
2022/07/18 00:57:14;;;;;;;;;5.00;5.00;;;;;27.29;21.79;101672.94;5042753;28;45444;-60
2022/07/18 01:02:26;;;;;;;;;6.00;4.00;;;;;27.24;22.35;101665.16;5060728;28;45324;-60
2022/07/18 01:04:51;;;;;;;;;4.00;4.00;;;;;27.20;21.75;101664.53;5058772;28;45341;-60
2022/07/18 01:07:16;;;;;;;;;3.25;3.25;;;;;27.18;22.14;101663.78;5060689;28;45389;-60
2022/07/18 01:09:42;;;;;;;;;4.50;3.00;;;;;27.16;22.52;101665.72;5060722;28;45223;-60
2022/07/18 01:12:08;;;;;;;;;5.00;3.25;;;;;27.13;22.60;101671.34;5060594;28;45333;-60
2022/07/18 01:14:35;;;;;;;;;4.00;4.00;;;;;27.11;22.40;101670.56;5060484;28;45357;-60
2022/07/18 01:17:00;;;;;;;;;4.75;4.75;;;;;27.07;21.96;101672.63;5042352;28;45384;-60
2022/07/18 01:19:26;;;;;;;;;3.00;3.00;;;;;27.04;22.46;101669.28;5060210;28;45306;-60
2022/07/18 01:21:51;;;;;;;;;4.25;4.00;;;;;26.98;22.07;101656.22;5060547;28;45317;-60
2022/07/18 01:24:17;;;;;;;;;3.75;3.75;;;;;27.02;22.17;101664.00;5060287;28;45246;-60
2022/07/18 01:26:42;;;;;;;;;3.75;2.75;;;;;27.00;22.61;101670.47;5060430;28;45304;-60
2022/07/18 01:29:07;;;;;;;;;4.00;3.00;;;;;26.97;22.60;101658.06;5060485;28;45678;-59
2022/07/18 01:31:33;;;;;;;;;3.25;3.25;;;;;26.96;22.79;101664.41;5060269;28;45230;-59
2022/07/18 01:33:59;;;;;;;;;3.25;3.25;;;;;26.91;22.67;101659.31;5059837;28;45337;-59
2022/07/18 01:36:25;;;;;;;;;4.00;4.00;;;;;26.87;22.84;101656.97;5060351;28;45373;-59
2022/07/18 01:38:51;;;;;;;;;4.00;4.00;;;;;26.88;22.23;101659.56;5042211;28;45297;-59
2022/07/18 01:41:16;;;;;;;;;3.00;3.00;;;;;26.86;22.66;101666.88;5060271;28;45392;-59
2022/07/18 01:43:42;;;;;;;;;4.00;4.00;;;;;26.84;22.36;101678.72;5041736;28;45619;-59
2022/07/18 01:46:09;;;;;;;;;6.00;5.00;;;;;26.81;22.31;101671.72;5060007;28;45293;-59
2022/07/18 01:48:38;;;;;;;;;4.25;4.25;;;;;26.78;22.95;101669.25;5060017;28;45766;-59
2022/07/18 01:51:04;;;;;;;;;5.75;5.50;;;;;26.74;22.76;101663.19;5059889;28;45597;-59
2022/07/18 01:53:29;;;;;;;;;3.75;3.50;;;;;26.73;22.31;101665.97;5059703;28;46480;-61
2022/07/18 01:55:55;;;;;;;;;4.00;3.50;;;;;26.71;22.37;101673.28;5060156;28;45459;-60
2022/07/18 01:58:20;;;;;;;;;4.25;4.25;;;;;26.67;22.72;101671.78;5059930;28;45375;-60
2022/07/18 02:00:45;;;;;;;;;4.00;3.00;;;;;26.62;22.80;101669.38;5041805;28;45552;-59
2022/07/18 02:03:11;;;;;;;;;6.00;6.00;;;;;26.61;23.10;101663.13;5058449;28;45227;-59
2022/07/18 02:05:36;;;;;;;;;3.50;3.50;;;;;26.57;23.18;101661.59;5059081;28;52391;-59
2022/07/18 02:08:02;;;;;;;;;5.25;5.25;;;;;26.54;22.80;101651.06;5041845;28;45234;-59
2022/07/18 02:10:27;;;;;;;;;4.00;4.00;;;;;26.53;23.28;101657.41;5041822;28;45819;-59
2022/07/18 02:12:52;;;;;;;;;4.75;4.75;;;;;26.51;22.81;101650.38;5041531;28;47031;-59
2022/07/18 02:15:18;;;;;;;;;3.00;3.00;;;;;26.49;23.23;101649.63;5060131;28;45216;-59
2022/07/18 02:17:44;;;;;;;;;6.75;5.25;;;;;26.45;23.49;101643.56;5059564;28;45159;-59
2022/07/18 02:20:11;;;;;;;;;5.50;3.75;;;;;26.41;23.05;101636.66;5041643;28;45465;-58
2022/07/18 02:22:37;;;;;;;;;4.00;4.00;;;;;26.39;23.08;101635.91;5059536;28;45351;-58
2022/07/18 02:25:03;;;;;;;;;4.75;4.75;;;;;26.36;23.74;101628.88;5059647;28;45426;-58
2022/07/18 02:27:29;;;;;;;;;3.00;3.00;;;;;26.35;23.49;101639.78;5059604;28;45244;-59
2022/07/18 02:29:54;;;;;;;;;3.00;3.00;;;;;26.34;22.97;101632.66;5059532;28;45308;-59
2022/07/18 02:32:20;;;;;;;;;3.25;3.25;;;;;26.31;23.03;101632.88;5059302;28;45303;-59
2022/07/18 02:34:46;;;;;;;;;3.50;3.50;;;;;26.25;23.10;101621.53;5059568;28;45316;-59
2022/07/18 02:37:12;;;;;;;;;2.00;1.50;;;;;26.24;23.59;101627.91;5059336;28;45436;-59
2022/07/18 02:39:37;;;;;;;;;2.75;2.75;;;;;26.19;23.43;101640.81;5059453;28;45250;-59
2022/07/18 02:42:04;;;;;;;;;3.25;3.25;;;;;26.19;23.26;101648.88;5059210;28;45973;-59
2022/07/18 02:44:29;;;;;;;;;3.00;3.00;;;;;26.18;23.53;101649.00;5041414;28;45458;-59
2022/07/18 02:46:54;;;;;;;;;3.25;3.25;;;;;26.13;23.58;101646.59;5037765;28;45252;-59
2022/07/18 02:49:29;;;;;;;;;4.50;4.00;;;;;26.11;23.36;101640.44;5039186;28;45119;-59
2022/07/18 02:52:03;;;;;;;;;3.50;3.50;;;;;26.07;23.39;101641.59;5045913;28;45420;-59
2022/07/18 02:54:30;;;;;;;;;3.00;3.00;;;;;26.05;23.15;101638.09;5059072;28;45379;-59
2022/07/18 02:56:56;;;;;;;;;3.00;3.00;;;;;26.03;23.16;101645.44;5061391;28;45356;-59
2022/07/18 02:59:21;;;;;;;;;2.25;2.00;;;;;26.00;23.27;101646.50;5062427;28;45368;-58
2022/07/18 03:01:48;;;;;;;;;4.75;2.75;;;;;25.96;23.55;101639.56;5062523;28;46320;-58
2022/07/18 03:04:14;;;;;;;;;4.00;2.50;;;;;25.96;23.36;101644.97;5060607;28;45427;-58
2022/07/18 03:06:40;;;;;;;;;3.00;3.00;;;;;25.94;23.35;101653.16;5062784;28;45371;-58
2022/07/18 03:09:05;;;;;;;;;3.00;3.00;;;;;25.90;23.56;101658.81;5062500;28;45484;-58
2022/07/18 03:11:30;;;;;;;;;4.50;4.00;;;;;25.91;23.36;101663.25;5062579;28;46673;-58
2022/07/18 03:13:56;;;;;;;;;1.50;0.75;;;;;25.88;23.25;101663.47;5044379;28;46152;-58
2022/07/18 03:16:21;;;;;;;;;2.50;2.50;;;;;25.84;23.50;101668.16;5062588;28;45250;-58
2022/07/18 03:18:46;;;;;;;;;3.00;3.00;;;;;25.80;23.33;101672.03;5062249;28;45546;-58
2022/07/18 03:21:12;;;;;;;;;6.25;4.00;;;;;25.77;23.48;101664.13;5062443;28;45940;-57
2022/07/18 03:23:37;;;;;;;;;3.50;3.00;;;;;25.75;23.73;101660.69;5044375;28;45257;-58
2022/07/18 03:26:03;;;;;;;;;6.00;4.50;;;;;25.73;23.36;101663.47;5044390;28;45265;-58
2022/07/18 03:28:28;;;;;;;;;6.25;5.00;;;;;25.70;23.89;101652.91;5062480;28;45225;-58
2022/07/18 03:30:53;;;;;;;;;5.00;5.00;;;;;25.67;24.21;101650.41;5061917;28;46174;-58
2022/07/18 03:33:19;;;;;;;;;6.00;5.00;;;;;25.66;23.92;101639.75;5061919;28;45260;-58
2022/07/18 03:35:44;;;;;;;;;4.25;4.25;;;;;25.59;24.06;101634.75;5062198;28;45150;-58
2022/07/18 03:38:09;;;;;;;;;4.00;4.00;;;;;25.61;24.17;101648.13;5062145;28;45305;-58
2022/07/18 03:40:35;;;;;;;;;5.75;5.75;;;;;25.59;24.43;101642.81;5043999;28;48316;-58
2022/07/18 03:43:00;;;;;;;;;5.75;5.00;;;;;25.54;24.31;101641.41;5062004;28;45536;-58
2022/07/18 03:45:26;;;;;;;;;6.00;6.00;;;;;25.54;24.04;101642.25;5061886;28;45356;-59
2022/07/18 03:47:51;;;;;;;;;4.00;4.00;;;;;25.52;24.60;101635.25;5061956;28;45380;-59
2022/07/18 03:50:16;;;;;;;;;5.75;5.75;;;;;25.49;24.46;101627.38;5061462;28;45336;-59
2022/07/18 03:52:42;;;;;;;;;7.00;5.00;;;;;25.39;24.56;101611.81;5061867;28;45427;-59
2022/07/18 03:55:07;;;;;;;;;4.50;4.50;;;;;25.44;24.32;101627.66;5061852;28;45340;-59
2022/07/18 03:57:33;;;;;;;;;4.50;4.50;;;;;25.42;24.79;101626.88;5061761;28;45394;-59
2022/07/18 03:59:58;;;;;;;;;3.50;3.50;;;;;25.40;24.61;101631.50;5061571;28;45469;-61
2022/07/18 04:02:23;;;;;;;;;3.25;3.25;;;;;25.38;24.64;101630.72;5043111;28;45285;-59
2022/07/18 04:04:49;;;;;;;;;4.00;4.00;;;;;25.36;24.49;101629.94;5060150;28;45355;-59
2022/07/18 04:07:14;;;;;;;;;5.25;5.25;;;;;25.32;24.79;101629.28;5061570;28;45320;-59
2022/07/18 04:09:39;;;;;;;;;5.00;5.00;;;;;25.31;24.48;101635.63;5043351;28;46064;-59
2022/07/18 04:12:05;;;;;;;;;5.00;5.00;;;;;25.29;25.09;101629.44;5061431;28;46112;-60
2022/07/18 04:14:30;;;;;;;;;4.75;4.00;;;;;25.27;24.69;101643.00;5043637;28;45298;-59
2022/07/18 04:16:55;;;;;;;;;6.00;5.00;;;;;25.22;24.54;101634.38;5061118;28;49033;-60
2022/07/18 04:19:23;;;;;;;;;43.75;35.25;;;;;25.23;24.61;101633.41;5061086;28;46433;-60
2022/07/18 04:21:48;;;;;;;;;10.50;9.50;;;;;25.21;24.92;101631.78;5043344;28;45245;-59
2022/07/18 04:24:14;;;;;;;;;4.25;4.25;;;;;25.20;24.80;101635.41;5061345;28;45286;-59
2022/07/18 04:26:39;;;;;;;;;4.75;3.00;;;;;25.17;25.11;101633.78;5061288;28;45424;-59
2022/07/18 04:29:04;;;;;;;;;4.50;4.00;;;;;25.17;24.93;101638.28;5043043;28;48305;-59
2022/07/18 04:31:30;;;;;;;;;5.50;5.00;;;;;25.13;25.07;101651.94;5061273;28;45374;-59
2022/07/18 04:33:55;;;;;;;;;6.50;5.50;;;;;25.10;25.04;101657.47;5061118;28;45448;-59
2022/07/18 04:36:20;;;;;;;;;7.00;5.00;;;;;25.05;25.04;101651.53;5061288;28;45403;-59
2022/07/18 04:38:46;;;;;;;;;7.25;5.00;;;;;25.02;25.45;101651.72;5043134;28;45374;-59
2022/07/18 04:41:12;;;;;;;;;4.50;4.50;;;;;25.03;25.24;101650.78;5060669;28;45403;-59
2022/07/18 04:43:37;;;;;;;;;8.00;6.25;;;;;25.02;25.25;101649.03;5061396;28;46124;-59
2022/07/18 04:46:02;;;;;;;;;8.50;6.00;;;;;24.99;25.25;101639.34;5060902;28;45428;-59
2022/07/18 04:48:28;;;;;;;;;6.75;6.00;;;;;24.96;25.64;101631.44;5060468;28;47128;-59
2022/07/18 04:50:53;;;;;;;;;7.75;6.25;;;;;24.96;25.72;101626.06;5060929;28;45335;-59
2022/07/18 04:53:19;;;;;;;;;7.50;7.00;;;;;24.95;25.36;101616.25;5061015;28;45553;-59
2022/07/18 04:55:44;;;;;;;;;5.75;5.25;;;;;24.93;26.02;101611.94;5060976;28;45586;-58
2022/07/18 04:58:10;;;;;;;;;21.75;18.75;;;;;24.93;25.27;101612.81;5060285;28;46300;-59
2022/07/18 05:00:35;;;;;;;;;8.50;8.00;;;;;24.93;25.67;101606.56;5060910;28;45196;-58
2022/07/18 05:03:02;;;;;;;;;7.00;6.00;;;;;24.91;25.67;101593.22;5041448;28;45271;-58
2022/07/18 05:05:28;;;;;;;;;6.25;5.75;;;;;24.92;25.79;101599.50;5038882;28;45502;-58
2022/07/18 05:07:54;;;;;;;;;7.00;5.25;;;;;24.92;26.12;101603.03;5040348;28;46308;-59
2022/07/18 05:10:21;;;;;;;;;6.50;6.00;;;;;24.92;25.86;101605.72;5040534;28;45244;-58
2022/07/18 05:12:50;;;;;;;;;5.25;5.25;;;;;24.88;25.91;101604.19;5040442;28;45296;-58
2022/07/18 05:15:17;;;;;;;;;5.00;4.50;;;;;24.90;25.93;101607.63;5042845;28;45464;-59
2022/07/18 05:17:43;;;;;;;;;5.25;5.00;;;;;24.88;25.59;101601.50;5041434;28;46247;-58
2022/07/18 05:20:15;;;;;;;;;5.75;5.75;;;;;24.90;25.74;101601.41;5042397;28;45349;-58
2022/07/18 05:22:41;;;;;;;;;3.50;3.50;;;;;24.89;25.68;101600.53;5040836;28;45359;-58
2022/07/18 05:25:08;;;;;;;;;4.50;4.00;;;;;24.90;25.76;101599.56;5040213;28;45407;-59
2022/07/18 05:27:34;;;;;;;;;5.75;4.00;;;;;24.89;25.82;101583.53;5040140;28;45213;-58
2022/07/18 05:30:00;;;;;;;;;5.75;3.75;;;;;24.89;25.77;101576.34;5040170;28;45428;-58
2022/07/18 05:32:26;;;;;;;;;5.50;4.00;;;;;24.88;26.06;101569.25;5040150;28;45340;-58
2022/07/18 05:34:52;;;;;;;;;5.25;4.00;;;;;24.90;25.36;101567.31;5040031;28;45487;-58
2022/07/18 05:37:17;;;;;;;;;5.50;4.25;;;;;24.87;25.40;101564.81;5039912;28;46396;-58
2022/07/18 05:39:43;;;;;;;;;3.50;3.00;;;;;24.86;25.72;101556.84;5039938;28;47136;-59
2022/07/18 05:42:08;;;;;;;;;4.00;4.00;;;;;24.89;25.33;101562.03;5040260;28;45297;-59
2022/07/18 05:44:33;;;;;;;;;5.00;5.00;;;;;24.86;25.52;101563.09;5040049;28;45336;-58
2022/07/18 05:46:59;;;;;;;;;4.75;4.75;;;;;24.87;25.49;101575.56;5039755;28;46281;-59
2022/07/18 05:49:24;;;;;;;;;3.25;3.00;;;;;24.87;25.56;101597.06;5039753;28;45274;-58
2022/07/18 05:51:49;;;;;;;;;4.75;4.75;;;;;24.88;25.37;101616.75;5039956;28;45724;-58
2022/07/18 05:54:18;;;;;;;;;6.50;5.75;;;;;24.89;25.95;101626.53;5039944;28;45466;-58
2022/07/18 05:56:48;;;;;;;;;5.25;4.00;;;;;24.90;25.70;101629.13;5039732;28;46282;-58
2022/07/18 05:59:14;;;;;;;;;5.75;5.75;;;;;24.92;25.41;101615.63;5038545;28;45481;-58
2022/07/18 06:01:39;;;;;;;;;13.75;10.75;;;;;24.93;25.79;101614.63;5021938;28;45296;-58
2022/07/18 06:04:05;;;;;;;;;11.25;7.50;;;;;24.96;25.75;101625.22;5049449;28;45569;-58
2022/07/18 06:06:31;;;;;;;;;7.75;7.50;;;;;24.97;25.61;101614.34;5053169;28;46247;-58
2022/07/18 06:08:56;;;;;;;;;12.25;11.50;;;;;24.99;25.76;101612.44;5039801;28;45531;-58
2022/07/18 06:11:21;;;;;;;;;4.75;4.75;;;;;25.04;26.07;101613.97;5039720;28;45317;-58
2022/07/18 06:13:47;;;;;;;;;4.25;3.75;;;;;25.04;26.01;101609.47;5021936;28;46398;-58
2022/07/18 06:16:12;;;;;;;;;5.00;4.50;;;;;25.08;25.72;101605.66;5039426;28;45308;-58
2022/07/18 06:18:38;;;;;;;;;5.00;5.00;;;;;25.11;25.85;101610.81;5039518;28;45345;-58
2022/07/18 06:21:04;;;;;;;;;4.75;4.50;;;;;25.15;25.50;101611.50;5039616;28;45231;-58
2022/07/18 06:23:29;;;;;;;;;3.75;3.75;;;;;25.18;26.06;101622.03;5039649;28;45530;-58
2022/07/18 06:25:58;;;;;;;;;5.00;5.00;;;;;25.21;25.49;101619.19;5039169;28;45615;-58
2022/07/18 06:28:25;;;;;;;;;4.00;4.00;;;;;25.24;25.54;101616.28;5039482;28;45293;-58
2022/07/18 06:30:51;;;;;;;;;6.00;4.25;;;;;25.26;25.96;101613.53;5039993;28;45330;-59
2022/07/18 06:33:16;;;;;;;;;5.50;4.50;;;;;25.29;25.71;101622.25;5041676;28;45210;-58
2022/07/18 06:35:41;;;;;;;;;5.00;4.75;;;;;25.33;25.73;101624.75;5042740;28;48810;-58
2022/07/18 06:38:07;;;;;;;;;5.00;5.00;;;;;25.36;25.91;101629.94;5042872;28;45234;-59
2022/07/18 06:40:32;;;;;;;;;5.00;4.00;;;;;25.39;25.63;101619.03;5042950;28;45224;-58
2022/07/18 06:42:58;;;;;;;;;4.25;4.25;;;;;25.41;25.84;101609.88;5042955;28;45392;-61
2022/07/18 06:45:23;;;;;;;;;7.00;5.50;;;;;25.46;25.95;101609.59;5042599;28;46278;-59
2022/07/18 06:47:49;;;;;;;;;4.00;3.00;;;;;25.47;25.86;101614.00;5042698;28;45272;-59
2022/07/18 06:50:14;;;;;;;;;5.50;3.75;;;;;25.52;25.50;101621.78;5042537;28;45501;-58
2022/07/18 06:52:42;;;;;;;;;6.50;6.00;;;;;25.55;26.05;101625.16;5042607;28;45470;-58
2022/07/18 06:55:08;;;;;;;;;10.25;8.75;;;;;25.59;25.55;101620.44;5042575;28;45400;-58
2022/07/18 06:57:33;;;;;;;;;5.25;5.00;;;;;25.63;25.70;101616.59;5042338;28;45508;-58
2022/07/18 06:59:58;;;;;;;;;5.00;5.00;;;;;25.68;25.79;101621.69;5042477;28;45484;-58
2022/07/18 07:02:25;;;;;;;;;8.00;6.00;;;;;25.69;25.40;101621.56;5042511;28;45321;-58
2022/07/18 07:04:50;;;;;;;;;5.25;4.00;;;;;25.77;25.68;101621.06;5040242;28;47135;-58
2022/07/18 07:07:16;;;;;;;;;7.00;4.75;;;;;25.80;25.79;101620.88;5062835;28;45174;-58
2022/07/18 07:09:41;;;;;;;;;9.25;5.00;;;;;25.84;25.49;101617.03;5062677;28;45827;-58
2022/07/18 07:12:06;;;;;;;;;5.75;5.75;;;;;25.83;25.81;101617.97;5062408;28;47786;-58
2022/07/18 07:14:32;;;;;;;;;8.00;6.00;;;;;25.92;25.85;101627.28;5062265;28;46287;-58
2022/07/18 07:16:57;;;;;;;;;7.00;5.75;;;;;25.96;25.64;101620.72;5062505;28;45210;-58
2022/07/18 07:19:22;;;;;;;;;8.75;5.75;;;;;26.02;25.84;101635.63;5061796;28;45507;-58
2022/07/18 07:21:48;;;;;;;;;7.00;6.00;;;;;26.05;25.74;101621.97;5044154;28;50644;-58
2022/07/18 07:24:13;;;;;;;;;7.00;7.00;;;;;26.12;25.92;101626.00;5042738;28;46121;-58
2022/07/18 07:26:38;;;;;;;;;9.25;7.50;;;;;26.17;25.97;101629.25;5042166;28;45254;-59
2022/07/18 07:29:04;;;;;;;;;8.25;7.00;;;;;26.21;25.29;101627.22;5042150;28;45163;-59
2022/07/18 07:31:30;;;;;;;;;10.00;8.50;;;;;26.28;25.34;101624.03;5042008;28;45386;-58
2022/07/18 07:33:55;;;;;;;;;10.25;8.25;;;;;26.30;25.23;101606.91;5041459;28;46014;-59
2022/07/18 07:36:21;;;;;;;;;8.00;7.00;;;;;26.39;25.22;101617.03;5042146;28;45321;-58
2022/07/18 07:38:46;;;;;;;;;6.00;6.00;;;;;26.44;25.36;101610.38;5042022;28;45421;-59
2022/07/18 07:41:13;;;;;;;;;7.25;7.25;;;;;26.49;25.39;101604.69;5041908;28;45249;-58
2022/07/18 07:43:38;;;;;;;;;7.00;5.75;;;;;26.49;25.52;101599.31;5041224;28;45333;-58
2022/07/18 07:46:04;;;;;;;;;6.50;6.00;;;;;26.59;25.36;101603.09;5041678;28;45345;-58
2022/07/18 07:48:29;;;;;;;;;8.00;8.00;;;;;26.65;25.49;101603.63;5024007;28;45326;-58
2022/07/18 07:50:55;;;;;;;;;6.00;4.50;;;;;26.71;25.18;101601.38;5041769;28;45343;-58
2022/07/18 07:53:20;;;;;;;;;7.75;7.50;;;;;26.75;25.58;101600.25;5041580;28;45622;-59
2022/07/18 07:55:45;;;;;;;;;6.00;6.00;;;;;26.83;25.39;101596.13;5041814;28;45329;-58
2022/07/18 07:58:11;;;;;;;;;6.25;5.25;;;;;26.87;25.26;101594.97;5041648;28;45240;-59
2022/07/18 08:00:37;;;;;;;;;7.50;5.50;;;;;26.95;25.46;101605.19;5041547;28;45577;-58
2022/07/18 08:03:04;;;;;;;;;5.25;5.25;;;;;27.00;26.04;101601.19;5042581;28;46185;-58
2022/07/18 08:05:33;;;;;;;;;5.75;5.75;;;;;27.07;26.07;101598.94;5060956;28;45284;-58
2022/07/18 08:07:59;;;;;;;;;7.25;4.50;;;;;27.13;25.87;101603.91;5043536;28;45317;-58
2022/07/18 08:10:25;;;;;;;;;9.00;7.00;;;;;27.19;25.39;101600.75;5061497;28;45530;-58
2022/07/18 08:12:51;;;;;;;;;9.75;5.25;;;;;27.25;26.14;101591.38;5061371;28;46024;-58
2022/07/18 08:15:17;;;;;;;;;6.00;6.00;;;;;27.32;26.06;101586.38;5060779;28;45320;-58
2022/07/18 08:17:42;;;;;;;;;6.00;6.00;;;;;27.37;25.91;101587.78;5061319;28;45257;-58
2022/07/18 08:20:08;;;;;;;;;5.00;5.00;;;;;27.45;26.10;101589.97;5061371;28;45209;-58
2022/07/18 08:22:34;;;;;;;;;7.25;7.25;;;;;27.50;25.80;101587.78;5060848;28;45280;-58
2022/07/18 08:25:00;;;;;;;;;8.75;7.50;;;;;27.56;25.86;101581.94;5061269;28;45297;-58
2022/07/18 08:27:26;;;;;;;;;7.00;6.00;;;;;27.65;26.01;101593.06;5061314;28;45352;-58
2022/07/18 08:29:51;;;;;;;;;7.50;6.00;;;;;27.71;25.95;101590.75;5061303;28;45497;-58
2022/07/18 08:32:16;;;;;;;;;6.75;4.75;;;;;27.79;25.96;101595.59;5061062;28;45311;-58
2022/07/18 08:34:42;;;;;;;;;9.00;6.50;;;;;27.83;25.63;101590.81;5060936;28;45332;-58
2022/07/18 08:37:07;;;;;;;;;7.50;7.25;;;;;27.92;25.87;101592.81;5060625;28;45390;-57
2022/07/18 08:39:32;;;;;;;;;7.50;7.00;;;;;27.98;26.29;101586.13;5061067;28;45550;-58
2022/07/18 08:42:00;;;;;;;;;7.00;7.00;;;;;28.05;25.47;101582.88;5042729;28;46020;-58
2022/07/18 08:44:28;;;;;;;;;8.00;7.00;;;;;28.11;25.87;101580.69;5031074;28;45373;-57
2022/07/18 08:46:57;;;;;;;;;9.25;6.50;;;;;28.18;26.04;101577.38;5038026;28;45277;-58
2022/07/18 08:49:22;;;;;;;;;6.75;6.75;;;;;28.25;26.22;101576.91;5053026;28;45459;-58
2022/07/18 08:51:47;;;;;;;;;6.75;6.00;;;;;28.34;25.46;101579.78;5060568;28;46280;-58
2022/07/18 08:54:13;;;;;;;;;7.75;6.75;;;;;28.41;25.43;101580.16;5060075;28;45431;-58
2022/07/18 08:56:39;;;;;;;;;6.00;5.25;;;;;28.48;25.62;101576.03;5060746;28;45555;-60
2022/07/18 08:59:04;;;;;;;;;8.00;6.00;;;;;28.56;26.14;101585.38;5060858;28;45445;-59
2022/07/18 09:01:30;;;;;;;;;6.00;6.00;;;;;28.62;26.00;101572.25;5060439;28;45363;-60
2022/07/18 09:06:45;;;;;;;;;7.50;7.00;;;;;28.81;25.82;101578.94;5053213;28;45254;-59
2022/07/18 09:09:12;;;;;;;;;10.00;7.00;;;;;28.85;25.63;101578.59;5040390;28;45440;-58
2022/07/18 09:11:52;;;;;;;;;7.75;6.50;;;;;28.98;25.33;101583.00;5040372;28;47135;-59
2022/07/18 09:14:49;;;;;;;;;8.00;7.00;;;;;29.09;25.62;101579.47;5040469;28;45246;-59
2022/07/18 09:17:22;;;;;;;;;7.00;7.00;;;;;29.17;25.80;101579.72;5002863;28;45312;-59
2022/07/18 09:20:08;;;;;;;;;6.25;6.25;;;;;29.28;25.61;101578.84;5039322;28;45651;-59
2022/07/18 09:22:35;;;;;;;;;7.50;7.50;;;;;29.35;25.27;101580.94;5039451;28;46148;-59
2022/07/18 09:25:20;;;;;;;;;7.25;7.00;;;;;29.44;25.51;101584.75;5040288;28;45326;-59
2022/07/18 09:27:48;;;;;;;;;7.50;7.50;;;;;29.53;25.68;101582.28;5048903;28;45249;-59
2022/07/18 09:30:20;;;;;;;;;12.00;9.25;;;;;29.64;25.43;101583.13;5060213;28;45508;-59
2022/07/18 09:32:47;;;;;;;;;7.50;7.25;;;;;29.74;25.51;101576.97;5060090;28;45266;-59
2022/07/18 09:35:19;;;;;;;;;8.25;8.00;;;;;29.82;25.38;101575.34;5059898;28;45261;-59
2022/07/18 09:38:07;;;;;;;;;11.50;10.50;;;;;29.92;25.05;101567.31;5042202;28;45346;-60
2022/07/18 09:40:34;;;;;;;;;8.25;8.25;;;;;30.03;25.41;101571.00;5058982;28;45392;-59
2022/07/18 09:43:02;;;;;;;;;8.50;7.00;;;;;30.11;25.45;101568.47;5059909;28;46270;-59
2022/07/18 09:45:39;;;;;;;;;6.25;6.25;;;;;30.23;25.42;101574.72;5060063;28;45241;-59
2022/07/18 09:48:09;;;;;;;;;7.00;6.25;;;;;30.34;25.57;101573.78;5059649;28;45602;-59
2022/07/18 09:50:42;;;;;;;;;8.75;7.25;;;;;30.43;24.95;101571.16;5060038;28;45311;-59
2022/07/18 09:53:07;;;;;;;;;9.25;7.00;;;;;30.54;25.05;101570.25;5041629;28;48045;-59
2022/07/18 09:55:33;;;;;;;;;10.25;9.00;;;;;30.66;24.93;101571.03;5059921;28;45455;-59
2022/07/18 09:58:04;;;;;;;;;7.00;7.00;;;;;30.75;25.16;101572.09;5060007;28;45453;-60
2022/07/18 10:00:31;;;;;;;;;6.75;5.75;;;;;30.87;24.63;101578.28;5059813;28;45498;-60
2022/07/18 10:02:58;;;;;;;;;6.25;6.25;;;;;30.98;25.14;101578.19;5057936;28;45469;-60
2022/07/18 10:05:26;;;;;;;;;7.50;6.00;;;;;31.09;25.09;101582.72;5061175;28;45457;-60
2022/07/18 10:07:51;;;;;;;;;7.00;7.00;;;;;31.19;24.69;101570.03;5048273;28;45313;-60
2022/07/18 10:10:17;;;;;;;;;7.25;7.25;;;;;31.34;24.61;101578.66;5048481;28;45773;-60
2022/07/18 10:12:43;;;;;;;;;6.25;6.25;;;;;31.47;25.04;101570.25;5048753;28;46174;-60
2022/07/18 10:15:09;;;;;;;;;5.50;5.50;;;;;31.59;24.35;101571.88;5046357;28;45237;-60
2022/07/18 10:17:34;;;;;;;;;6.75;6.75;;;;;31.72;24.86;101584.38;5060581;28;45370;-60
2022/07/18 10:20:05;;;;;;;;;5.00;5.00;;;;;31.85;24.79;101574.09;5055118;28;45456;-60
2022/07/18 10:22:44;;;;;;;;;7.25;6.00;;;;;31.97;24.47;101566.66;5046163;28;45222;-60
2022/07/18 10:25:13;;;;;;;;;5.00;5.00;;;;;32.11;23.92;101565.34;5052136;28;45292;-60
2022/07/18 10:27:52;;;;;;;;;6.75;5.25;;;;;32.25;23.74;101555.94;5046262;28;45387;-60
2022/07/18 10:30:29;;;;;;;;;6.50;6.00;;;;;32.40;24.13;101561.78;5045814;28;46360;-60
2022/07/18 10:32:55;;;;;;;;;5.75;4.25;;;;;32.54;24.01;101557.75;5045671;28;46279;-61
2022/07/18 10:35:57;;;;;;;;;6.00;5.75;;;;;32.71;24.00;101554.28;5045803;28;45365;-61
2022/07/18 10:38:23;;;;;;;;;4.25;4.25;;;;;32.88;23.33;101557.25;5046098;28;45372;-61
2022/07/18 10:41:02;;;;;;;;;6.75;6.75;;;;;33.06;23.67;101554.63;5045877;28;45175;-61
2022/07/18 10:43:29;;;;;;;;;4.75;4.75;;;;;33.24;23.33;101554.66;5045824;28;46399;-61
2022/07/18 10:45:55;;;;;;;;;7.75;7.00;;;;;33.41;23.20;101541.28;5045808;28;45388;-61
2022/07/18 10:48:32;;;;;;;;;5.75;5.75;;;;;33.69;23.63;101547.53;5050214;28;45262;-61
2022/07/18 10:51:18;;;;;;;;;6.00;6.00;;;;;34.03;23.75;101544.97;5053114;28;45182;-61
2022/07/18 10:54:01;;;;;;;;;4.00;4.00;;;;;34.56;23.73;101544.22;5045520;28;45459;-61
2022/07/18 10:56:35;;;;;;;;;5.00;4.75;;;;;35.08;23.84;101554.25;5045543;28;46415;-61
2022/07/18 10:59:24;;;;;;;;;5.00;5.00;;;;;35.76;23.59;101553.28;5045701;28;45463;-61
2022/07/18 11:01:53;;;;;;;;;2.50;2.50;;;;;36.38;23.57;101549.25;5054099;28;45903;-61
2022/07/18 11:04:27;;;;;;;;;5.00;5.00;;;;;37.03;23.62;101550.13;5063438;28;46203;-61
2022/07/18 11:07:03;;;;;;;;;4.00;4.00;;;;;37.68;22.93;101552.69;5065883;28;45328;-61
2022/07/18 11:09:39;;;;;;;;;4.25;4.25;;;;;38.37;22.51;101547.19;5065791;28;45421;-61
2022/07/18 11:12:17;;;;;;;;;5.50;3.75;;;;;39.11;22.29;101550.13;5047592;28;45441;-61
2022/07/18 11:15:10;;;;;;;;;3.00;3.00;;;;;39.88;22.15;101547.91;5065943;28;45505;-59
2022/07/18 11:17:51;;;;;;;;;3.25;3.25;;;;;40.70;21.94;101551.09;5062499;28;45224;-60
2022/07/18 11:20:41;;;;;;;;;1.50;1.50;;;;;41.50;21.75;101553.38;5062364;28;45443;-61
2022/07/18 11:23:17;;;;;;;;;3.75;3.75;;;;;42.28;20.92;101550.09;5062360;28;45179;-61
2022/07/18 11:25:43;;;;;;;;;3.00;3.00;;;;;42.94;20.85;101542.72;5062007;28;46620;-61
2022/07/18 11:28:10;;;;;;;;;3.00;3.00;;;;;43.58;20.84;101548.38;5062265;28;45296;-61
2022/07/18 11:30:37;;;;;;;;;2.25;2.25;;;;;44.19;20.48;101545.16;5062094;28;45300;-61